This is the latest recevied weather packets stored in our database for station/object N3FAA. If no packets are shown the sender has not sent any weather packets the latest 10 day(s).
| Time | Temp. | Humidity | Pressure | Rain* | Wind** | Luminosity | Snow |
|---|---|---|---|---|---|---|---|
| 1777402775 | 18.89° C | 33% | 1015.5 hPa | 0 mm | - | 892 W/m² | - |
| 1777402472 | 18.89° C | 32% | 1015.3 hPa | 0 mm | - | 909 W/m² | - |
| 1777402170 | 18.33° C | 34% | 1015.6 hPa | 0 mm | - | 924 W/m² | - |
| 1777401865 | 18.89° C | 34% | 1015.5 hPa | 0 mm | - | 930 W/m² | - |
| 1777401564 | 18.33° C | 34% | 1015.6 hPa | 0 mm | - | 933 W/m² | - |
| 1777401260 | 18.33° C | 35% | 1015.6 hPa | 0 mm | - | 959 W/m² | - |
| 1777400956 | 18.33° C | 33% | 1015.4 hPa | 0 mm | - | 1002 W/m² | - |
| 1777400652 | 18.33° C | 35% | 1015.6 hPa | 0 mm | - | 1012 W/m² | - |
| 1777400350 | 18.33° C | 35% | 1015.6 hPa | 0 mm | - | 998 W/m² | - |
| 1777400045 | 17.78° C | 35% | 1015.6 hPa | 0 mm | - | 1017 W/m² | - |
| 1777399743 | 17.78° C | 38% | 1015.5 hPa | 0 mm | - | 1012 W/m² | - |
| 1777399439 | 17.78° C | 39% | 1015.8 hPa | 0 mm | - | 1014 W/m² | - |
| 1777399137 | 17.22° C | 37% | 1015.8 hPa | 0 mm | - | 975 W/m² | - |
| 1777398834 | 17.22° C | 38% | 1015.8 hPa | 0 mm | - | 947 W/m² | - |
| 1777398531 | 17.22° C | 40% | 1016 hPa | 0 mm | - | 882 W/m² | - |
| 1777398227 | 16.67° C | 42% | 1016 hPa | 0 mm | - | 805 W/m² | - |
| 1777397924 | 16.67° C | 43% | 1016 hPa | 0 mm | - | 793 W/m² | - |
| 1777397619 | 17.22° C | 42% | 1016.1 hPa | 0 mm | - | 843 W/m² | - |
| 1777397316 | 17.22° C | 41% | 1015.8 hPa | 0 mm | - | 805 W/m² | - |
| 1777397008 | 16.11° C | 44% | 1015.9 hPa | 0 mm | - | 789 W/m² | - |
| 1777396704 | 15.56° C | 45% | 1016.1 hPa | 0 mm | - | 800 W/m² | - |
| 1777396401 | 15.56° C | 45% | 1016.1 hPa | 0 mm | - | 786 W/m² | - |
| 1777396098 | 15.56° C | 45% | 1016.1 hPa | 0 mm | - | 769 W/m² | - |
| 1777395794 | 15.56° C | 45% | 1016 hPa | 0 mm | - | 747 W/m² | - |
| 1777395489 | 15.56° C | 45% | 1016 hPa | 0 mm | - | 750 W/m² | - |
* Rain latest hour (hover to see other rain measurements)
** Current wind speed in m/s (hover to see current wind gust speed)